sensor_id;sensor_type;location;lat;lon;timestamp;P1;durP1;ratioP1;P2;durP2;ratioP2
52322;SDS011;38263;52.920;6.238;2022-10-17T00:01:41;9.13;;;3.40;;
52322;SDS011;38263;52.920;6.238;2022-10-17T00:04:06;9.23;;;3.28;;
52322;SDS011;38263;52.920;6.238;2022-10-17T00:06:32;11.30;;;3.78;;
52322;SDS011;38263;52.920;6.238;2022-10-17T00:08:57;7.40;;;3.25;;
52322;SDS011;38263;52.920;6.238;2022-10-17T00:11:23;13.07;;;4.15;;
52322;SDS011;38263;52.920;6.238;2022-10-17T00:13:50;11.88;;;4.60;;
52322;SDS011;38263;52.920;6.238;2022-10-17T00:16:31;13.68;;;5.10;;
52322;SDS011;38263;52.920;6.238;2022-10-17T00:19:00;11.15;;;3.97;;
52322;SDS011;38263;52.920;6.238;2022-10-17T00:21:26;9.32;;;3.83;;
52322;SDS011;38263;52.920;6.238;2022-10-17T00:23:52;9.88;;;3.83;;
52322;SDS011;38263;52.920;6.238;2022-10-17T00:26:18;12.25;;;4.55;;
52322;SDS011;38263;52.920;6.238;2022-10-17T00:28:45;7.68;;;4.15;;
52322;SDS011;38263;52.920;6.238;2022-10-17T00:31:11;9.77;;;4.15;;
52322;SDS011;38263;52.920;6.238;2022-10-17T00:33:37;12.07;;;4.10;;
52322;SDS011;38263;52.920;6.238;2022-10-17T00:36:07;15.60;;;4.03;;
52322;SDS011;38263;52.920;6.238;2022-10-17T00:38:37;12.60;;;4.28;;
52322;SDS011;38263;52.920;6.238;2022-10-17T00:41:04;10.10;;;4.32;;
52322;SDS011;38263;52.920;6.238;2022-10-17T00:43:47;16.00;;;4.88;;
52322;SDS011;38263;52.920;6.238;2022-10-17T00:46:17;14.55;;;4.60;;
52322;SDS011;38263;52.920;6.238;2022-10-17T00:48:44;8.25;;;4.65;;
52322;SDS011;38263;52.920;6.238;2022-10-17T00:51:12;12.30;;;4.35;;
52322;SDS011;38263;52.920;6.238;2022-10-17T00:53:38;11.43;;;4.30;;
52322;SDS011;38263;52.920;6.238;2022-10-17T00:56:04;10.00;;;4.47;;
52322;SDS011;38263;52.920;6.238;2022-10-17T00:58:30;11.98;;;4.65;;
52322;SDS011;38263;52.920;6.238;2022-10-17T01:00:56;8.10;;;4.78;;
52322;SDS011;38263;52.920;6.238;2022-10-17T01:03:21;10.68;;;4.68;;
52322;SDS011;38263;52.920;6.238;2022-10-17T01:05:47;9.70;;;4.93;;
52322;SDS011;38263;52.920;6.238;2022-10-17T01:08:14;8.75;;;4.50;;
52322;SDS011;38263;52.920;6.238;2022-10-17T01:13:29;14.38;;;5.63;;
52322;SDS011;38263;52.920;6.238;2022-10-17T01:16:13;6.78;;;4.55;;
52322;SDS011;38263;52.920;6.238;2022-10-17T01:21:46;11.02;;;4.93;;
52322;SDS011;38263;52.920;6.238;2022-10-17T01:27:22;14.57;;;5.93;;
52322;SDS011;38263;52.920;6.238;2022-10-17T01:32:58;13.50;;;5.68;;
52322;SDS011;38263;52.920;6.238;2022-10-17T01:35:38;10.70;;;6.38;;
52322;SDS011;38263;52.920;6.238;2022-10-17T01:38:10;11.05;;;5.50;;
52322;SDS011;38263;52.920;6.238;2022-10-17T01:40:49;13.88;;;5.55;;
52322;SDS011;38263;52.920;6.238;2022-10-17T01:43:22;13.55;;;6.30;;
52322;SDS011;38263;52.920;6.238;2022-10-17T01:45:58;9.57;;;5.35;;
52322;SDS011;38263;52.920;6.238;2022-10-17T01:48:31;9.95;;;5.43;;
52322;SDS011;38263;52.920;6.238;2022-10-17T01:51:08;11.02;;;6.10;;
52322;SDS011;38263;52.920;6.238;2022-10-17T01:53:42;10.60;;;5.35;;
52322;SDS011;38263;52.920;6.238;2022-10-17T01:56:13;10.60;;;5.82;;
52322;SDS011;38263;52.920;6.238;2022-10-17T01:58:49;13.50;;;5.90;;
52322;SDS011;38263;52.920;6.238;2022-10-17T02:01:25;11.20;;;6.28;;
52322;SDS011;38263;52.920;6.238;2022-10-17T02:03:52;11.50;;;7.00;;
52322;SDS011;38263;52.920;6.238;2022-10-17T02:06:20;10.27;;;6.68;;
52322;SDS011;38263;52.920;6.238;2022-10-17T02:08:49;16.40;;;6.97;;
52322;SDS011;38263;52.920;6.238;2022-10-17T02:11:16;14.23;;;7.30;;
52322;SDS011;38263;52.920;6.238;2022-10-17T02:16:34;10.98;;;7.00;;
52322;SDS011;38263;52.920;6.238;2022-10-17T02:22:35;12.85;;;7.60;;
52322;SDS011;38263;52.920;6.238;2022-10-17T02:24:48;9.60;;;7.32;;
52322;SDS011;38263;52.920;6.238;2022-10-17T02:30:00;11.10;;;7.70;;
52322;SDS011;38263;52.920;6.238;2022-10-17T02:35:12;11.43;;;8.13;;
52322;SDS011;38263;52.920;6.238;2022-10-17T02:37:39;12.43;;;8.10;;
52322;SDS011;38263;52.920;6.238;2022-10-17T02:40:07;14.20;;;8.07;;
52322;SDS011;38263;52.920;6.238;2022-10-17T02:42:38;11.13;;;7.53;;
52322;SDS011;38263;52.920;6.238;2022-10-17T02:45:07;14.32;;;9.18;;
52322;SDS011;38263;52.920;6.238;2022-10-17T02:47:35;12.02;;;8.70;;
52322;SDS011;38263;52.920;6.238;2022-10-17T02:50:06;10.50;;;8.07;;
52322;SDS011;38263;52.920;6.238;2022-10-17T02:57:38;18.85;;;9.98;;
52322;SDS011;38263;52.920;6.238;2022-10-17T03:00:07;15.57;;;9.07;;
52322;SDS011;38263;52.920;6.238;2022-10-17T03:02:39;15.57;;;10.23;;
52322;SDS011;38263;52.920;6.238;2022-10-17T03:05:10;16.20;;;9.38;;
52322;SDS011;38263;52.920;6.238;2022-10-17T03:07:38;14.88;;;10.90;;
52322;SDS011;38263;52.920;6.238;2022-10-17T03:10:03;14.50;;;10.25;;
52322;SDS011;38263;52.920;6.238;2022-10-17T03:12:29;18.65;;;12.77;;
52322;SDS011;38263;52.920;6.238;2022-10-17T03:14:55;16.98;;;11.48;;
52322;SDS011;38263;52.920;6.238;2022-10-17T03:17:20;14.85;;;10.82;;
52322;SDS011;38263;52.920;6.238;2022-10-17T03:19:46;19.98;;;12.10;;
52322;SDS011;38263;52.920;6.238;2022-10-17T03:22:12;19.13;;;11.90;;
52322;SDS011;38263;52.920;6.238;2022-10-17T03:24:37;17.23;;;12.48;;
52322;SDS011;38263;52.920;6.238;2022-10-17T03:27:03;14.75;;;12.00;;
52322;SDS011;38263;52.920;6.238;2022-10-17T03:29:29;18.83;;;12.13;;
52322;SDS011;38263;52.920;6.238;2022-10-17T03:31:54;19.67;;;11.15;;
52322;SDS011;38263;52.920;6.238;2022-10-17T03:34:20;21.13;;;12.57;;
52322;SDS011;38263;52.920;6.238;2022-10-17T03:36:45;18.63;;;12.40;;
52322;SDS011;38263;52.920;6.238;2022-10-17T03:39:11;17.42;;;12.57;;
52322;SDS011;38263;52.920;6.238;2022-10-17T03:41:37;20.67;;;13.15;;
52322;SDS011;38263;52.920;6.238;2022-10-17T03:44:02;19.58;;;13.90;;
52322;SDS011;38263;52.920;6.238;2022-10-17T03:46:28;20.42;;;13.55;;
52322;SDS011;38263;52.920;6.238;2022-10-17T03:48:53;23.95;;;12.32;;
52322;SDS011;38263;52.920;6.238;2022-10-17T03:51:19;17.95;;;12.98;;
52322;SDS011;38263;52.920;6.238;2022-10-17T03:53:44;17.73;;;13.35;;
52322;SDS011;38263;52.920;6.238;2022-10-17T03:56:14;21.92;;;13.43;;
52322;SDS011;38263;52.920;6.238;2022-10-17T03:58:41;18.17;;;13.35;;
52322;SDS011;38263;52.920;6.238;2022-10-17T04:01:07;19.13;;;13.02;;
52322;SDS011;38263;52.920;6.238;2022-10-17T04:03:35;17.48;;;13.30;;
52322;SDS011;38263;52.920;6.238;2022-10-17T04:06:01;17.10;;;13.50;;
52322;SDS011;38263;52.920;6.238;2022-10-17T04:08:28;23.05;;;14.27;;
52322;SDS011;38263;52.920;6.238;2022-10-17T04:11:00;19.83;;;13.48;;
52322;SDS011;38263;52.920;6.238;2022-10-17T04:13:27;20.05;;;14.63;;
52322;SDS011;38263;52.920;6.238;2022-10-17T04:15:54;23.35;;;14.30;;
52322;SDS011;38263;52.920;6.238;2022-10-17T04:18:20;20.65;;;14.68;;
52322;SDS011;38263;52.920;6.238;2022-10-17T04:20:46;20.33;;;13.38;;
52322;SDS011;38263;52.920;6.238;2022-10-17T04:23:11;22.10;;;15.60;;
52322;SDS011;38263;52.920;6.238;2022-10-17T04:25:37;22.92;;;14.82;;
52322;SDS011;38263;52.920;6.238;2022-10-17T04:28:02;19.55;;;15.30;;
52322;SDS011;38263;52.920;6.238;2022-10-17T04:30:28;18.73;;;14.50;;
52322;SDS011;38263;52.920;6.238;2022-10-17T04:32:54;20.45;;;14.40;;
52322;SDS011;38263;52.920;6.238;2022-10-17T04:35:19;19.30;;;15.10;;
52322;SDS011;38263;52.920;6.238;2022-10-17T04:37:45;22.50;;;15.05;;
52322;SDS011;38263;52.920;6.238;2022-10-17T04:40:11;21.55;;;16.60;;
52322;SDS011;38263;52.920;6.238;2022-10-17T04:42:37;21.60;;;14.27;;
52322;SDS011;38263;52.920;6.238;2022-10-17T04:45:03;24.05;;;15.45;;
52322;SDS011;38263;52.920;6.238;2022-10-17T04:47:29;20.77;;;14.57;;
52322;SDS011;38263;52.920;6.238;2022-10-17T04:49:54;21.27;;;15.27;;
52322;SDS011;38263;52.920;6.238;2022-10-17T04:52:20;21.30;;;15.80;;
52322;SDS011;38263;52.920;6.238;2022-10-17T04:54:45;20.38;;;15.88;;
52322;SDS011;38263;52.920;6.238;2022-10-17T04:57:11;24.67;;;15.20;;
52322;SDS011;38263;52.920;6.238;2022-10-17T04:59:37;22.23;;;16.15;;
52322;SDS011;38263;52.920;6.238;2022-10-17T05:02:03;20.65;;;15.50;;
52322;SDS011;38263;52.920;6.238;2022-10-17T05:04:28;20.73;;;15.05;;
52322;SDS011;38263;52.920;6.238;2022-10-17T05:06:54;23.40;;;15.82;;
52322;SDS011;38263;52.920;6.238;2022-10-17T05:09:19;25.25;;;16.17;;
52322;SDS011;38263;52.920;6.238;2022-10-17T05:11:45;25.17;;;14.65;;
52322;SDS011;38263;52.920;6.238;2022-10-17T05:14:10;21.98;;;14.18;;
52322;SDS011;38263;52.920;6.238;2022-10-17T05:16:36;26.90;;;14.68;;
52322;SDS011;38263;52.920;6.238;2022-10-17T05:19:01;22.27;;;15.60;;
52322;SDS011;38263;52.920;6.238;2022-10-17T05:21:28;23.30;;;14.02;;
52322;SDS011;38263;52.920;6.238;2022-10-17T05:23:54;20.75;;;15.15;;
52322;SDS011;38263;52.920;6.238;2022-10-17T05:26:20;20.13;;;15.23;;
52322;SDS011;38263;52.920;6.238;2022-10-17T05:28:46;20.38;;;15.10;;
52322;SDS011;38263;52.920;6.238;2022-10-17T05:31:12;21.10;;;14.50;;
52322;SDS011;38263;52.920;6.238;2022-10-17T05:33:38;23.00;;;14.13;;
52322;SDS011;38263;52.920;6.238;2022-10-17T05:36:04;21.30;;;14.70;;
52322;SDS011;38263;52.920;6.238;2022-10-17T05:38:31;22.17;;;15.20;;
52322;SDS011;38263;52.920;6.238;2022-10-17T05:40:57;24.80;;;16.42;;
52322;SDS011;38263;52.920;6.238;2022-10-17T05:43:23;19.58;;;14.07;;
52322;SDS011;38263;52.920;6.238;2022-10-17T05:45:49;19.95;;;15.20;;
52322;SDS011;38263;52.920;6.238;2022-10-17T05:48:15;19.63;;;13.57;;
52322;SDS011;38263;52.920;6.238;2022-10-17T05:50:40;23.50;;;14.32;;
52322;SDS011;38263;52.920;6.238;2022-10-17T05:53:06;26.58;;;14.50;;
52322;SDS011;38263;52.920;6.238;2022-10-17T05:55:31;19.60;;;12.05;;
52322;SDS011;38263;52.920;6.238;2022-10-17T05:57:58;20.05;;;14.05;;
52322;SDS011;38263;52.920;6.238;2022-10-17T06:00:24;16.50;;;12.85;;
52322;SDS011;38263;52.920;6.238;2022-10-17T06:02:50;21.45;;;14.82;;
52322;SDS011;38263;52.920;6.238;2022-10-17T06:05:15;21.05;;;13.30;;
52322;SDS011;38263;52.920;6.238;2022-10-17T06:07:41;19.65;;;12.43;;
52322;SDS011;38263;52.920;6.238;2022-10-17T06:10:07;18.92;;;13.80;;
52322;SDS011;38263;52.920;6.238;2022-10-17T06:12:36;20.52;;;12.88;;
52322;SDS011;38263;52.920;6.238;2022-10-17T06:15:02;18.73;;;12.90;;
52322;SDS011;38263;52.920;6.238;2022-10-17T06:17:27;17.25;;;11.68;;
52322;SDS011;38263;52.920;6.238;2022-10-17T06:19:54;20.58;;;13.02;;
52322;SDS011;38263;52.920;6.238;2022-10-17T06:22:20;17.88;;;11.90;;
52322;SDS011;38263;52.920;6.238;2022-10-17T06:24:46;15.80;;;11.15;;
52322;SDS011;38263;52.920;6.238;2022-10-17T06:27:11;16.60;;;12.50;;
52322;SDS011;38263;52.920;6.238;2022-10-17T06:29:37;15.95;;;11.55;;
52322;SDS011;38263;52.920;6.238;2022-10-17T06:32:03;16.95;;;11.55;;
52322;SDS011;38263;52.920;6.238;2022-10-17T06:34:28;14.88;;;11.25;;
52322;SDS011;38263;52.920;6.238;2022-10-17T06:36:54;18.25;;;11.45;;
52322;SDS011;38263;52.920;6.238;2022-10-17T06:39:19;20.38;;;12.35;;
52322;SDS011;38263;52.920;6.238;2022-10-17T06:41:45;20.90;;;11.20;;
52322;SDS011;38263;52.920;6.238;2022-10-17T06:44:10;17.15;;;11.02;;
52322;SDS011;38263;52.920;6.238;2022-10-17T06:46:37;19.35;;;10.63;;
52322;SDS011;38263;52.920;6.238;2022-10-17T06:49:03;15.50;;;10.80;;
52322;SDS011;38263;52.920;6.238;2022-10-17T06:51:30;15.32;;;10.02;;
52322;SDS011;38263;52.920;6.238;2022-10-17T06:53:56;14.98;;;10.10;;
52322;SDS011;38263;52.920;6.238;2022-10-17T06:56:22;15.25;;;10.32;;
52322;SDS011;38263;52.920;6.238;2022-10-17T06:58:48;14.30;;;10.02;;
52322;SDS011;38263;52.920;6.238;2022-10-17T07:01:15;14.82;;;9.50;;
52322;SDS011;38263;52.920;6.238;2022-10-17T07:03:41;13.30;;;9.80;;
52322;SDS011;38263;52.920;6.238;2022-10-17T07:06:07;15.32;;;9.15;;
52322;SDS011;38263;52.920;6.238;2022-10-17T07:08:35;11.90;;;9.18;;
52322;SDS011;38263;52.920;6.238;2022-10-17T07:11:14;12.73;;;9.38;;
52322;SDS011;38263;52.920;6.238;2022-10-17T07:13:42;13.68;;;9.27;;
52322;SDS011;38263;52.920;6.238;2022-10-17T07:16:08;14.18;;;9.45;;
52322;SDS011;38263;52.920;6.238;2022-10-17T07:18:34;12.27;;;9.30;;
52322;SDS011;38263;52.920;6.238;2022-10-17T07:21:00;14.60;;;8.70;;
52322;SDS011;38263;52.920;6.238;2022-10-17T07:23:26;12.98;;;9.63;;
52322;SDS011;38263;52.920;6.238;2022-10-17T07:25:51;13.40;;;8.98;;
52322;SDS011;38263;52.920;6.238;2022-10-17T07:28:17;13.80;;;8.75;;
52322;SDS011;38263;52.920;6.238;2022-10-17T07:30:43;13.13;;;8.68;;
52322;SDS011;38263;52.920;6.238;2022-10-17T07:33:09;12.35;;;8.48;;
52322;SDS011;38263;52.920;6.238;2022-10-17T07:35:36;16.08;;;9.60;;
52322;SDS011;38263;52.920;6.238;2022-10-17T07:38:02;12.65;;;8.77;;
52322;SDS011;38263;52.920;6.238;2022-10-17T07:40:28;11.70;;;9.18;;
52322;SDS011;38263;52.920;6.238;2022-10-17T07:42:53;12.25;;;8.65;;
52322;SDS011;38263;52.920;6.238;2022-10-17T07:45:20;11.57;;;7.93;;
52322;SDS011;38263;52.920;6.238;2022-10-17T07:47:47;11.50;;;8.02;;
52322;SDS011;38263;52.920;6.238;2022-10-17T07:50:13;12.70;;;8.85;;
52322;SDS011;38263;52.920;6.238;2022-10-17T07:52:39;13.20;;;8.30;;
52322;SDS011;38263;52.920;6.238;2022-10-17T07:55:07;10.98;;;7.85;;
52322;SDS011;38263;52.920;6.238;2022-10-17T07:57:33;9.15;;;7.75;;
52322;SDS011;38263;52.920;6.238;2022-10-17T07:59:59;11.82;;;7.97;;
52322;SDS011;38263;52.920;6.238;2022-10-17T08:02:25;17.13;;;8.45;;
52322;SDS011;38263;52.920;6.238;2022-10-17T08:04:51;18.77;;;8.20;;
52322;SDS011;38263;52.920;6.238;2022-10-17T08:07:17;8.90;;;7.00;;
52322;SDS011;38263;52.920;6.238;2022-10-17T08:09:44;10.35;;;7.82;;
52322;SDS011;38263;52.920;6.238;2022-10-17T08:12:10;11.48;;;7.35;;
52322;SDS011;38263;52.920;6.238;2022-10-17T08:14:38;10.35;;;7.90;;
52322;SDS011;38263;52.920;6.238;2022-10-17T08:17:04;25.55;;;8.90;;
52322;SDS011;38263;52.920;6.238;2022-10-17T08:19:30;14.70;;;8.30;;
52322;SDS011;38263;52.920;6.238;2022-10-17T08:21:56;13.35;;;7.63;;
52322;SDS011;38263;52.920;6.238;2022-10-17T08:24:23;12.35;;;7.63;;
52322;SDS011;38263;52.920;6.238;2022-10-17T08:26:49;10.10;;;7.68;;
52322;SDS011;38263;52.920;6.238;2022-10-17T08:29:15;11.88;;;7.78;;
52322;SDS011;38263;52.920;6.238;2022-10-17T08:31:41;15.15;;;7.57;;
52322;SDS011;38263;52.920;6.238;2022-10-17T08:34:06;11.10;;;8.15;;
52322;SDS011;38263;52.920;6.238;2022-10-17T08:36:32;15.32;;;8.63;;
52322;SDS011;38263;52.920;6.238;2022-10-17T08:38:58;12.15;;;7.10;;
52322;SDS011;38263;52.920;6.238;2022-10-17T08:41:30;14.20;;;8.35;;
52322;SDS011;38263;52.920;6.238;2022-10-17T08:50:29;10.65;;;7.20;;
52322;SDS011;38263;52.920;6.238;2022-10-17T08:52:58;10.15;;;7.22;;
52322;SDS011;38263;52.920;6.238;2022-10-17T08:55:50;17.20;;;7.97;;
52322;SDS011;38263;52.920;6.238;2022-10-17T08:58:25;12.57;;;8.07;;
52322;SDS011;38263;52.920;6.238;2022-10-17T09:06:07;11.60;;;8.18;;
52322;SDS011;38263;52.920;6.238;2022-10-17T09:08:48;12.65;;;8.35;;
52322;SDS011;38263;52.920;6.238;2022-10-17T09:17:11;11.45;;;7.45;;
52322;SDS011;38263;52.920;6.238;2022-10-17T09:19:42;12.68;;;8.60;;
52322;SDS011;38263;52.920;6.238;2022-10-17T09:22:16;11.40;;;8.20;;
52322;SDS011;38263;52.920;6.238;2022-10-17T09:24:50;11.63;;;8.77;;
52322;SDS011;38263;52.920;6.238;2022-10-17T09:27:23;11.68;;;8.77;;
52322;SDS011;38263;52.920;6.238;2022-10-17T09:29:50;10.70;;;8.95;;
52322;SDS011;38263;52.920;6.238;2022-10-17T09:34:52;13.93;;;8.52;;
52322;SDS011;38263;52.920;6.238;2022-10-17T09:37:18;11.57;;;8.68;;
52322;SDS011;38263;52.920;6.238;2022-10-17T09:39:48;14.80;;;9.65;;
52322;SDS011;38263;52.920;6.238;2022-10-17T09:42:14;13.18;;;9.98;;
52322;SDS011;38263;52.920;6.238;2022-10-17T09:44:54;15.27;;;9.40;;
52322;SDS011;38263;52.920;6.238;2022-10-17T09:47:29;12.98;;;8.88;;
52322;SDS011;38263;52.920;6.238;2022-10-17T09:50:04;17.17;;;10.48;;
52322;SDS011;38263;52.920;6.238;2022-10-17T09:52:39;13.98;;;9.48;;
52322;SDS011;38263;52.920;6.238;2022-10-17T09:58:03;15.73;;;9.90;;
52322;SDS011;38263;52.920;6.238;2022-10-17T10:00:31;18.45;;;9.98;;
52322;SDS011;38263;52.920;6.238;2022-10-17T10:03:24;16.83;;;9.65;;
52322;SDS011;38263;52.920;6.238;2022-10-17T10:08:25;13.25;;;9.77;;
52322;SDS011;38263;52.920;6.238;2022-10-17T10:11:03;19.40;;;10.05;;
52322;SDS011;38263;52.920;6.238;2022-10-17T10:13:32;16.45;;;10.75;;
52322;SDS011;38263;52.920;6.238;2022-10-17T10:16:41;13.57;;;9.68;;
52322;SDS011;38263;52.920;6.238;2022-10-17T10:18:54;16.88;;;9.90;;
52322;SDS011;38263;52.920;6.238;2022-10-17T10:21:21;15.05;;;10.63;;
52322;SDS011;38263;52.920;6.238;2022-10-17T10:24:21;18.35;;;10.85;;
52322;SDS011;38263;52.920;6.238;2022-10-17T10:26:46;13.57;;;10.23;;
52322;SDS011;38263;52.920;6.238;2022-10-17T10:31:55;15.35;;;10.68;;
52322;SDS011;38263;52.920;6.238;2022-10-17T10:34:31;13.68;;;10.57;;
52322;SDS011;38263;52.920;6.238;2022-10-17T10:37:13;15.45;;;11.18;;
52322;SDS011;38263;52.920;6.238;2022-10-17T10:42:26;14.52;;;10.52;;
52322;SDS011;38263;52.920;6.238;2022-10-17T10:45:22;14.95;;;10.95;;
52322;SDS011;38263;52.920;6.238;2022-10-17T10:48:00;16.58;;;11.50;;
52322;SDS011;38263;52.920;6.238;2022-10-17T10:50:39;15.07;;;10.63;;
52322;SDS011;38263;52.920;6.238;2022-10-17T10:59:01;19.38;;;11.07;;
52322;SDS011;38263;52.920;6.238;2022-10-17T11:02:03;19.08;;;11.70;;
52322;SDS011;38263;52.920;6.238;2022-10-17T11:04:55;17.40;;;11.95;;
52322;SDS011;38263;52.920;6.238;2022-10-17T11:07:49;17.73;;;11.50;;
52322;SDS011;38263;52.920;6.238;2022-10-17T11:16:31;15.93;;;12.25;;
52322;SDS011;38263;52.920;6.238;2022-10-17T11:18:44;21.80;;;12.65;;
52322;SDS011;38263;52.920;6.238;2022-10-17T11:21:19;22.40;;;13.40;;
52322;SDS011;38263;52.920;6.238;2022-10-17T11:24:08;15.43;;;11.65;;
52322;SDS011;38263;52.920;6.238;2022-10-17T11:27:02;14.15;;;11.15;;
52322;SDS011;38263;52.920;6.238;2022-10-17T11:29:32;18.80;;;11.23;;
52322;SDS011;38263;52.920;6.238;2022-10-17T11:32:02;15.82;;;10.98;;
52322;SDS011;38263;52.920;6.238;2022-10-17T11:34:43;16.63;;;11.07;;
52322;SDS011;38263;52.920;6.238;2022-10-17T11:37:16;17.05;;;11.45;;
52322;SDS011;38263;52.920;6.238;2022-10-17T11:39:49;15.05;;;10.88;;
52322;SDS011;38263;52.920;6.238;2022-10-17T11:45:00;17.55;;;10.55;;
52322;SDS011;38263;52.920;6.238;2022-10-17T11:52:55;15.90;;;10.18;;
52322;SDS011;38263;52.920;6.238;2022-10-17T11:55:28;16.90;;;10.90;;
52322;SDS011;38263;52.920;6.238;2022-10-17T12:00:47;14.90;;;11.25;;
52322;SDS011;38263;52.920;6.238;2022-10-17T12:11:04;14.45;;;9.68;;
52322;SDS011;38263;52.920;6.238;2022-10-17T12:13:53;12.10;;;9.02;;
52322;SDS011;38263;52.920;6.238;2022-10-17T12:18:48;11.85;;;8.07;;
52322;SDS011;38263;52.920;6.238;2022-10-17T12:21:26;13.32;;;7.57;;
52322;SDS011;38263;52.920;6.238;2022-10-17T12:23:53;15.40;;;8.23;;
52322;SDS011;38263;52.920;6.238;2022-10-17T12:26:26;9.45;;;6.57;;
52322;SDS011;38263;52.920;6.238;2022-10-17T12:28:53;9.50;;;6.68;;
52322;SDS011;38263;52.920;6.238;2022-10-17T12:31:23;8.02;;;4.55;;
52322;SDS011;38263;52.920;6.238;2022-10-17T12:33:59;6.28;;;4.65;;
52322;SDS011;38263;52.920;6.238;2022-10-17T12:44:06;13.50;;;5.60;;
52322;SDS011;38263;52.920;6.238;2022-10-17T12:57:34;4.20;;;3.38;;
52322;SDS011;38263;52.920;6.238;2022-10-17T13:03:21;5.22;;;3.53;;
52322;SDS011;38263;52.920;6.238;2022-10-17T13:05:53;7.35;;;3.78;;
52322;SDS011;38263;52.920;6.238;2022-10-17T13:08:26;8.10;;;3.90;;
52322;SDS011;38263;52.920;6.238;2022-10-17T13:10:54;6.90;;;3.20;;
52322;SDS011;38263;52.920;6.238;2022-10-17T13:16:00;10.27;;;4.22;;
52322;SDS011;38263;52.920;6.238;2022-10-17T13:18:27;9.63;;;5.30;;
52322;SDS011;38263;52.920;6.238;2022-10-17T13:21:03;9.10;;;4.80;;
52322;SDS011;38263;52.920;6.238;2022-10-17T13:23:39;8.77;;;4.78;;
52322;SDS011;38263;52.920;6.238;2022-10-17T13:26:22;10.13;;;4.40;;
52322;SDS011;38263;52.920;6.238;2022-10-17T13:29:05;11.10;;;5.47;;
52322;SDS011;38263;52.920;6.238;2022-10-17T13:31:36;5.72;;;3.30;;
52322;SDS011;38263;52.920;6.238;2022-10-17T13:34:04;6.35;;;3.80;;
52322;SDS011;38263;52.920;6.238;2022-10-17T13:36:39;7.07;;;3.63;;
52322;SDS011;38263;52.920;6.238;2022-10-17T13:39:07;5.25;;;3.65;;
52322;SDS011;38263;52.920;6.238;2022-10-17T13:41:37;8.93;;;3.38;;
52322;SDS011;38263;52.920;6.238;2022-10-17T13:44:08;7.50;;;2.90;;
52322;SDS011;38263;52.920;6.238;2022-10-17T13:46:39;5.60;;;2.88;;
52322;SDS011;38263;52.920;6.238;2022-10-17T13:49:20;5.28;;;2.53;;
52322;SDS011;38263;52.920;6.238;2022-10-17T13:51:49;6.97;;;2.90;;
52322;SDS011;38263;52.920;6.238;2022-10-17T13:54:38;7.10;;;2.60;;
52322;SDS011;38263;52.920;6.238;2022-10-17T13:57:18;4.65;;;2.25;;
52322;SDS011;38263;52.920;6.238;2022-10-17T13:59:46;4.35;;;2.47;;
52322;SDS011;38263;52.920;6.238;2022-10-17T14:02:23;4.15;;;1.92;;
52322;SDS011;38263;52.920;6.238;2022-10-17T14:07:43;5.88;;;1.65;;
52322;SDS011;38263;52.920;6.238;2022-10-17T14:10:40;6.78;;;2.28;;
52322;SDS011;38263;52.920;6.238;2022-10-17T14:13:14;5.82;;;2.00;;
52322;SDS011;38263;52.920;6.238;2022-10-17T14:15:51;4.25;;;1.67;;
52322;SDS011;38263;52.920;6.238;2022-10-17T14:18:31;5.10;;;1.67;;
52322;SDS011;38263;52.920;6.238;2022-10-17T14:20:59;4.13;;;1.85;;
52322;SDS011;38263;52.920;6.238;2022-10-17T14:23:30;6.22;;;1.38;;
52322;SDS011;38263;52.920;6.238;2022-10-17T14:26:05;5.57;;;2.20;;
52322;SDS011;38263;52.920;6.238;2022-10-17T14:28:38;3.78;;;1.67;;
52322;SDS011;38263;52.920;6.238;2022-10-17T14:33:43;7.20;;;1.80;;
52322;SDS011;38263;52.920;6.238;2022-10-17T14:36:10;4.00;;;1.85;;
52322;SDS011;38263;52.920;6.238;2022-10-17T14:38:35;4.72;;;1.70;;
52322;SDS011;38263;52.920;6.238;2022-10-17T14:41:04;5.68;;;1.70;;
52322;SDS011;38263;52.920;6.238;2022-10-17T14:43:37;5.10;;;2.20;;
52322;SDS011;38263;52.920;6.238;2022-10-17T14:46:03;4.15;;;2.00;;
52322;SDS011;38263;52.920;6.238;2022-10-17T14:48:29;5.28;;;1.65;;
52322;SDS011;38263;52.920;6.238;2022-10-17T14:51:15;2.55;;;1.42;;
52322;SDS011;38263;52.920;6.238;2022-10-17T14:54:04;7.30;;;1.70;;
52322;SDS011;38263;52.920;6.238;2022-10-17T14:59:21;5.85;;;2.22;;
52322;SDS011;38263;52.920;6.238;2022-10-17T15:05:02;3.03;;;2.00;;
52322;SDS011;38263;52.920;6.238;2022-10-17T15:07:28;6.55;;;2.08;;
52322;SDS011;38263;52.920;6.238;2022-10-17T15:09:54;5.35;;;2.78;;
52322;SDS011;38263;52.920;6.238;2022-10-17T15:12:23;4.03;;;2.20;;
52322;SDS011;38263;52.920;6.238;2022-10-17T15:14:49;6.65;;;2.15;;
52322;SDS011;38263;52.920;6.238;2022-10-17T15:17:36;11.43;;;2.10;;
52322;SDS011;38263;52.920;6.238;2022-10-17T15:20:01;5.55;;;2.22;;
52322;SDS011;38263;52.920;6.238;2022-10-17T15:22:27;5.38;;;2.00;;
52322;SDS011;38263;52.920;6.238;2022-10-17T15:24:53;8.30;;;3.00;;
52322;SDS011;38263;52.920;6.238;2022-10-17T15:27:19;6.93;;;2.53;;
52322;SDS011;38263;52.920;6.238;2022-10-17T15:29:47;6.25;;;2.78;;
52322;SDS011;38263;52.920;6.238;2022-10-17T15:32:13;4.25;;;2.35;;
52322;SDS011;38263;52.920;6.238;2022-10-17T15:34:39;3.63;;;2.17;;
52322;SDS011;38263;52.920;6.238;2022-10-17T15:37:05;6.85;;;2.22;;
52322;SDS011;38263;52.920;6.238;2022-10-17T15:39:38;5.47;;;2.55;;
52322;SDS011;38263;52.920;6.238;2022-10-17T15:42:04;5.28;;;2.63;;
52322;SDS011;38263;52.920;6.238;2022-10-17T15:44:34;5.10;;;2.95;;
52322;SDS011;38263;52.920;6.238;2022-10-17T15:47:00;4.45;;;2.60;;
52322;SDS011;38263;52.920;6.238;2022-10-17T15:49:26;7.57;;;3.50;;
52322;SDS011;38263;52.920;6.238;2022-10-17T15:51:52;5.78;;;3.13;;
52322;SDS011;38263;52.920;6.238;2022-10-17T15:54:18;5.60;;;3.03;;
52322;SDS011;38263;52.920;6.238;2022-10-17T15:56:45;5.97;;;3.00;;
52322;SDS011;38263;52.920;6.238;2022-10-17T15:59:17;7.28;;;3.30;;
52322;SDS011;38263;52.920;6.238;2022-10-17T16:01:45;4.13;;;2.80;;
52322;SDS011;38263;52.920;6.238;2022-10-17T16:04:12;8.25;;;2.85;;
52322;SDS011;38263;52.920;6.238;2022-10-17T16:06:40;8.63;;;2.70;;
52322;SDS011;38263;52.920;6.238;2022-10-17T16:09:06;5.45;;;3.33;;
52322;SDS011;38263;52.920;6.238;2022-10-17T16:14:01;6.85;;;2.88;;
52322;SDS011;38263;52.920;6.238;2022-10-17T16:16:29;5.75;;;3.13;;
52322;SDS011;38263;52.920;6.238;2022-10-17T16:18:54;7.18;;;3.70;;
52322;SDS011;38263;52.920;6.238;2022-10-17T16:21:21;4.10;;;3.17;;
52322;SDS011;38263;52.920;6.238;2022-10-17T16:23:49;6.95;;;3.78;;
52322;SDS011;38263;52.920;6.238;2022-10-17T16:26:15;6.07;;;3.50;;
52322;SDS011;38263;52.920;6.238;2022-10-17T16:28:41;7.18;;;3.75;;
52322;SDS011;38263;52.920;6.238;2022-10-17T16:33:42;5.93;;;3.42;;
52322;SDS011;38263;52.920;6.238;2022-10-17T16:36:08;7.40;;;4.47;;
52322;SDS011;38263;52.920;6.238;2022-10-17T16:38:34;7.07;;;4.35;;
52322;SDS011;38263;52.920;6.238;2022-10-17T16:41:00;5.90;;;4.18;;
52322;SDS011;38263;52.920;6.238;2022-10-17T16:43:26;7.05;;;4.70;;
52322;SDS011;38263;52.920;6.238;2022-10-17T16:45:51;9.55;;;4.97;;
52322;SDS011;38263;52.920;6.238;2022-10-17T16:48:17;9.63;;;5.30;;
52322;SDS011;38263;52.920;6.238;2022-10-17T16:50:42;7.50;;;5.53;;
52322;SDS011;38263;52.920;6.238;2022-10-17T16:53:08;8.95;;;5.15;;
52322;SDS011;38263;52.920;6.238;2022-10-17T16:55:33;11.32;;;5.10;;
52322;SDS011;38263;52.920;6.238;2022-10-17T16:57:59;10.43;;;5.40;;
52322;SDS011;38263;52.920;6.238;2022-10-17T17:00:25;11.05;;;5.10;;